Time;durP1;ratioP1;P1;durP2;ratioP2;P2;SDS_P1;SDS_P2;PMS_P1;PMS_P2;Temp;Humidity;BMP_temperature;BMP_pressure;BME280_temperature;BME280_humidity;BME280_pressure;Samples;Min_cycle;Max_cycle;Signal;HPM_P1;HPM_P2
2021/10/23 00:00:12;;;;;;;12.95;3.20;;;32.10;18.60;;;;;;4949878;28;20082;-64
2021/10/23 00:02:38;;;;;;;21.27;3.72;;;31.90;18.30;;;;;;4966886;28;20106;-64
2021/10/23 00:05:05;;;;;;;20.73;3.15;;;31.80;18.50;;;;;;4950743;28;20161;-63
2021/10/23 00:07:31;;;;;;;13.73;3.20;;;31.70;18.30;;;;;;4950659;28;20090;-65
2021/10/23 00:09:58;;;;;;;21.50;3.30;;;31.70;18.90;;;;;;4970169;28;20075;-66
2021/10/23 00:12:24;;;;;;;14.65;2.53;;;31.70;18.60;;;;;;4953187;28;20098;-67
2021/10/23 00:14:50;;;;;;;18.30;2.58;;;31.60;19.10;;;;;;4967006;28;20078;-64
2021/10/23 00:17:17;;;;;;;20.20;2.78;;;31.70;19.10;;;;;;4950797;28;20071;-68
2021/10/23 00:19:43;;;;;;;21.40;4.45;;;31.60;19.20;;;;;;4967938;28;20074;-68
2021/10/23 00:22:10;;;;;;;23.23;3.20;;;31.40;19.60;;;;;;4953723;28;20080;-66
2021/10/23 00:24:36;;;;;;;17.27;3.50;;;31.30;20.10;;;;;;4950802;28;20542;-68
2021/10/23 00:27:03;;;;;;;27.88;3.33;;;31.20;19.70;;;;;;4971464;28;20074;-67
2021/10/23 00:29:29;;;;;;;27.90;4.18;;;31.20;19.90;;;;;;4952904;28;20086;-68
2021/10/23 00:31:55;;;;;;;32.63;4.28;;;31.10;20.30;;;;;;4952879;28;20577;-67
2021/10/23 00:34:22;;;;;;;23.73;4.28;;;31.00;20.60;;;;;;4953534;28;20079;-68
2021/10/23 00:36:49;;;;;;;35.42;4.22;;;31.00;20.60;;;;;;4952728;28;20081;-66
2021/10/23 00:39:15;;;;;;;31.33;3.97;;;30.90;20.90;;;;;;4952331;28;20067;-66
2021/10/23 00:41:42;;;;;;;26.25;3.85;;;30.80;20.90;;;;;;4946612;28;20080;-71
2021/10/23 00:44:28;;;;;;;34.78;5.10;;;30.80;21.20;;;;;;4968416;28;20110;-69
2021/10/23 00:46:54;;;;;;;37.58;4.95;;;30.60;21.30;;;;;;4968219;28;20082;-69
2021/10/23 00:49:21;;;;;;;37.90;4.80;;;30.50;21.40;;;;;;4968211;28;20085;-67
2021/10/23 00:51:47;;;;;;;41.67;4.85;;;30.50;21.60;;;;;;4951094;28;20091;-66
2021/10/23 00:54:14;;;;;;;54.63;5.57;;;30.30;21.60;;;;;;4968074;28;20066;-67
2021/10/23 00:56:40;;;;;;;47.08;7.70;;;30.20;21.80;;;;;;4953829;28;20070;-69
2021/10/23 00:59:06;;;;;;;36.58;8.45;;;30.10;21.90;;;;;;4969306;28;20078;-66
2021/10/23 01:01:33;;;;;;;59.80;8.48;;;30.00;22.20;;;;;;4968243;28;20133;-67
2021/10/23 01:03:59;;;;;;;66.93;8.55;;;29.80;22.20;;;;;;4952383;28;20413;-67
2021/10/23 01:06:26;;;;;;;64.93;8.38;;;28.00;21.80;;;;;;4969907;28;20079;-66
2021/10/23 01:08:52;;;;;;;58.45;10.50;;;29.60;22.80;;;;;;4968339;28;20075;-67
2021/10/23 01:11:19;;;;;;;59.25;9.50;;;29.50;22.80;;;;;;4952606;28;20585;-67
2021/10/23 01:13:45;;;;;;;61.97;9.90;;;29.30;23.50;;;;;;4953040;28;20076;-65
2021/10/23 01:16:13;;;;;;;55.47;9.40;;;29.20;23.40;;;;;;4968014;28;20067;-66
2021/10/23 01:18:44;;;;;;;55.03;10.48;;;29.10;23.70;;;;;;4951045;28;20098;-66
2021/10/23 01:21:10;;;;;;;63.45;9.88;;;28.90;24.10;;;;;;4951905;28;20226;-66
2021/10/23 01:23:37;;;;;;;72.07;10.68;;;28.80;24.30;;;;;;4953847;28;20098;-67
2021/10/23 01:26:03;;;;;;;63.90;10.27;;;28.60;24.40;;;;;;4969753;28;20074;-66
2021/10/23 01:28:30;;;;;;;45.97;9.70;;;28.50;24.70;;;;;;4951921;28;20091;-65
2021/10/23 01:30:57;;;;;;;75.00;11.27;;;28.40;24.90;;;;;;4952100;28;20202;-67
2021/10/23 01:33:24;;;;;;;43.25;8.82;;;28.10;25.00;;;;;;4950925;28;20070;-65
2021/10/23 01:35:50;;;;;;;69.65;9.15;;;28.00;25.20;;;;;;4955532;28;20521;-65
2021/10/23 01:38:17;;;;;;;56.45;10.80;;;27.80;25.70;;;;;;4953028;28;20070;-65
2021/10/23 01:40:44;;;;;;;55.88;9.02;;;27.70;25.60;;;;;;4934730;28;20089;-63
2021/10/23 01:43:10;;;;;;;65.05;9.43;;;27.50;25.60;;;;;;4951355;28;20145;-65
2021/10/23 01:45:37;;;;;;;73.10;9.73;;;27.40;25.90;;;;;;4969940;28;20074;-65
2021/10/23 01:48:05;;;;;;;68.63;9.07;;;27.20;25.80;;;;;;4967878;28;20078;-66
2021/10/23 01:50:32;;;;;;;82.45;9.43;;;27.10;26.10;;;;;;4966021;28;20094;-67
2021/10/23 01:52:58;;;;;;;66.75;9.25;;;27.10;26.50;;;;;;4951798;28;20125;-65
2021/10/23 01:55:25;;;;;;;67.07;9.93;;;27.00;26.90;;;;;;4950979;28;20111;-67
2021/10/23 01:57:51;;;;;;;63.40;8.95;;;26.90;27.30;;;;;;4967736;28;20114;-66
2021/10/23 02:00:18;;;;;;;75.43;10.52;;;26.70;27.70;;;;;;4966321;28;20433;-67
2021/10/23 02:02:45;;;;;;;91.43;11.05;;;26.60;28.00;;;;;;4950618;28;20095;-68
2021/10/23 02:05:11;;;;;;;67.72;9.40;;;26.50;28.40;;;;;;4937629;28;20123;-68
2021/10/23 02:07:38;;;;;;;93.47;12.98;;;26.40;28.40;;;;;;4949972;28;20075;-70
2021/10/23 02:10:08;;;;;;;80.07;9.95;;;26.30;27.30;;;;;;4950220;28;20107;-70
2021/10/23 02:12:36;;;;;;;63.95;9.40;;;26.40;26.30;;;;;;4966467;28;20102;-67
2021/10/23 02:15:03;;;;;;;54.20;8.35;;;26.80;25.80;;;;;;4951576;28;20072;-66
2021/10/23 02:17:30;;;;;;;46.05;7.20;;;27.00;25.80;;;;;;4953295;28;20101;-66
2021/10/23 02:19:56;;;;;;;37.20;6.07;;;27.20;26.10;;;;;;4964780;28;20743;-66
2021/10/23 02:22:23;;;;;;;42.95;5.95;;;27.20;26.40;;;;;;4963165;28;20309;-69
2021/10/23 02:24:49;;;;;;;41.30;6.47;;;27.10;26.50;;;;;;4949875;28;20114;-67
2021/10/23 02:27:15;;;;;;;37.95;6.57;;;27.00;26.90;;;;;;4951800;28;20078;-65
2021/10/23 02:29:42;;;;;;;24.45;4.18;;;27.20;35.20;;;;;;4953883;28;20157;-68
2021/10/23 02:32:09;;;;;;;17.73;4.05;;;27.20;26.90;;;;;;4949208;28;20124;-66
2021/10/23 02:34:36;;;;;;;9.40;3.45;;;27.30;26.90;;;;;;4933800;28;20080;-67
2021/10/23 02:37:02;;;;;;;17.98;4.35;;;27.40;27.00;;;;;;4953302;28;20071;-66
2021/10/23 02:39:29;;;;;;;13.75;5.28;;;27.40;27.10;;;;;;4971014;28;20088;-67
2021/10/23 02:42:33;;;;;;;15.68;4.43;;;27.40;27.20;;;;;;4955521;28;20516;-67
2021/10/23 02:51:44;;;;;;;13.90;3.80;;;27.50;27.80;;;;;;4953682;28;20158;-67
2021/10/23 02:54:14;;;;;;;18.15;3.88;;;27.00;28.00;;;;;;4977111;28;20079;-67
2021/10/23 02:56:41;;;;;;;21.60;3.90;;;26.90;28.10;;;;;;4955267;28;20087;-69
2021/10/23 02:59:11;;;;;;;23.13;4.13;;;26.80;28.10;;;;;;4952230;28;20633;-67
2021/10/23 03:04:28;;;;;;;17.98;4.70;;;26.70;28.90;;;;;;4962569;28;20084;-66
2021/10/23 03:07:01;;;;;;;18.05;4.55;;;26.60;29.40;;;;;;4960346;28;20478;-66
2021/10/23 03:09:27;;;;;;;17.58;3.88;;;26.50;29.50;;;;;;4940040;28;20075;-66
2021/10/23 03:11:54;;;;;;;21.48;4.40;;;26.40;28.40;;;;;;4956436;28;20086;-66
2021/10/23 03:14:24;;;;;;;18.08;3.63;;;26.40;29.10;;;;;;4955914;28;20521;-68
2021/10/23 03:16:53;;;;;;;14.55;3.15;;;26.50;28.90;;;;;;4935916;28;20138;-67
2021/10/23 03:19:21;;;;;;;17.13;3.33;;;26.30;29.20;;;;;;4939499;28;20166;-67
2021/10/23 03:21:51;;;;;;;15.40;3.20;;;26.20;28.50;;;;;;4941720;28;20118;-68
2021/10/23 03:24:17;;;;;;;11.50;3.45;;;26.90;28.90;;;;;;4941426;28;20186;-64
2021/10/23 03:26:44;;;;;;;12.85;2.95;;;26.20;29.00;;;;;;4938489;28;20104;-66
2021/10/23 03:29:10;;;;;;;11.95;4.25;;;26.10;28.70;;;;;;4953731;28;20100;-69
2021/10/23 03:31:37;;;;;;;19.60;4.32;;;26.20;28.50;;;;;;4954209;28;20113;-64
2021/10/23 03:34:03;;;;;;;18.50;3.63;;;25.70;36.10;;;;;;4954022;28;20268;-64
2021/10/23 03:36:33;;;;;;;14.90;3.50;;;24.10;28.50;;;;;;4958913;28;20605;-70
2021/10/23 03:38:59;;;;;;;14.85;3.38;;;26.00;28.50;;;;;;4952163;28;20104;-65
2021/10/23 03:41:26;;;;;;;14.70;3.63;;;25.90;28.90;;;;;;4943190;28;20088;-62
2021/10/23 03:43:52;;;;;;;9.10;3.78;;;25.80;28.20;;;;;;4953893;28;20090;-64
2021/10/23 03:46:18;;;;;;;17.92;3.97;;;25.70;28.30;;;;;;4953182;28;20079;-66
2021/10/23 03:48:45;;;;;;;10.02;3.38;;;25.70;28.40;;;;;;4968685;28;20109;-65
2021/10/23 03:51:11;;;;;;;13.65;3.33;;;25.60;28.50;;;;;;4952693;28;20450;-64
2021/10/23 03:53:38;;;;;;;12.82;4.13;;;25.50;28.60;;;;;;4952965;28;20083;-66
2021/10/23 03:56:04;;;;;;;14.02;3.25;;;25.40;28.70;;;;;;4952505;28;20446;-66
2021/10/23 03:58:31;;;;;;;17.85;3.50;;;25.40;28.30;;;;;;4955537;28;20521;-67
2021/10/23 04:00:57;;;;;;;15.32;3.83;;;25.40;28.10;;;;;;4953989;28;20088;-69
2021/10/23 04:03:24;;;;;;;14.50;5.45;;;25.40;28.10;;;;;;4968673;28;20558;-67
2021/10/23 04:05:50;;;;;;;13.85;5.07;;;25.40;28.10;;;;;;4956130;28;20081;-66
2021/10/23 04:08:17;;;;;;;12.73;4.85;;;25.30;28.00;;;;;;4968683;28;20225;-67
2021/10/23 04:10:43;;;;;;;14.05;4.35;;;25.20;28.00;;;;;;4976000;28;20087;-66
2021/10/23 04:13:10;;;;;;;10.25;4.40;;;25.20;28.00;;;;;;4951268;28;20176;-67
2021/10/23 04:15:39;;;;;;;16.85;4.82;;;25.10;28.20;;;;;;4954268;28;20064;-64
2021/10/23 04:18:06;;;;;;;14.32;4.47;;;25.10;28.20;;;;;;4944214;28;20134;-65
2021/10/23 04:20:32;;;;;;;11.57;3.92;;;25.00;28.90;;;;;;4952560;28;20082;-65
2021/10/23 04:22:59;;;;;;;13.40;3.65;;;24.90;28.40;;;;;;4971844;28;20091;-69
2021/10/23 04:25:26;;;;;;;18.63;3.20;;;24.90;28.80;;;;;;4960365;28;20087;-67
2021/10/23 04:27:52;;;;;;;9.75;3.30;;;24.70;28.80;;;;;;4967505;28;20083;-68
2021/10/23 04:30:19;;;;;;;15.73;3.33;;;24.70;28.10;;;;;;4952810;28;20118;-67
2021/10/23 04:32:45;;;;;;;13.90;3.90;;;24.70;28.20;;;;;;4951531;28;20123;-66
2021/10/23 04:35:11;;;;;;;14.18;3.72;;;24.60;28.00;;;;;;4967860;28;21273;-69
2021/10/23 04:37:40;;;;;;;9.30;3.30;;;24.60;28.00;;;;;;4968186;28;20139;-66
2021/10/23 04:40:08;;;;;;;11.98;3.22;;;24.50;28.00;;;;;;4967787;28;20085;-65
2021/10/23 04:42:34;;;;;;;13.05;3.20;;;24.40;27.90;;;;;;4950081;28;20083;-66
2021/10/23 04:45:00;;;;;;;13.77;3.00;;;24.40;27.90;;;;;;4950734;28;20071;-65
2021/10/23 04:47:27;;;;;;;13.60;4.35;;;24.40;28.00;;;;;;4966769;28;20084;-67
2021/10/23 04:49:53;;;;;;;16.83;4.00;;;24.30;28.00;;;;;;4967816;28;20076;-67
2021/10/23 04:52:19;;;;;;;14.02;4.60;;;24.20;28.10;;;;;;4971480;28;20525;-67
2021/10/23 04:54:46;;;;;;;16.92;5.78;;;24.10;27.90;;;;;;4952903;28;20122;-67
2021/10/23 04:57:12;;;;;;;19.73;10.60;;;24.10;27.80;;;;;;4952365;28;20118;-69
2021/10/23 04:59:39;;;;;;;24.73;11.77;;;24.10;27.70;;;;;;4969512;28;20074;-66
2021/10/23 05:02:05;;;;;;;20.02;8.32;;;24.00;27.60;;;;;;4958382;28;20449;-66
2021/10/23 05:04:32;;;;;;;20.60;9.43;;;24.00;27.70;;;;;;4967720;28;20531;-69
2021/10/23 05:06:58;;;;;;;20.30;8.27;;;23.90;27.40;;;;;;4967739;28;20110;-69
2021/10/23 05:09:24;;;;;;;15.57;7.75;;;23.90;27.50;;;;;;4967331;28;20076;-66
2021/10/23 05:11:51;;;;;;;14.07;6.32;;;23.90;27.80;;;;;;4952373;28;20088;-68
2021/10/23 05:14:18;;;;;;;14.70;3.55;;;23.80;28.00;;;;;;4952876;28;20082;-67
2021/10/23 05:16:45;;;;;;;10.20;2.78;;;23.80;27.80;;;;;;4967471;28;20546;-66
2021/10/23 05:19:11;;;;;;;8.40;2.72;;;23.60;27.90;;;;;;4953491;28;20076;-65
2021/10/23 05:21:38;;;;;;;13.20;3.10;;;23.50;28.20;;;;;;4967181;28;20550;-66
2021/10/23 05:24:04;;;;;;;10.98;2.47;;;23.50;28.20;;;;;;4967060;28;20076;-66
2021/10/23 05:26:31;;;;;;;14.32;2.47;;;23.40;27.90;;;;;;4966735;28;20716;-67
2021/10/23 05:28:57;;;;;;;9.85;2.40;;;23.40;27.70;;;;;;4967218;28;20115;-66
2021/10/23 05:31:23;;;;;;;7.47;1.92;;;23.40;27.50;;;;;;4966512;28;20426;-64
2021/10/23 05:33:50;;;;;;;8.88;2.70;;;23.30;28.00;;;;;;4970808;28;20118;-68
2021/10/23 05:36:16;;;;;;;9.45;2.92;;;23.30;28.00;;;;;;4951283;28;20071;-66
2021/10/23 05:38:42;;;;;;;6.35;1.83;;;23.30;28.30;;;;;;4954668;28;20538;-66
2021/10/23 05:41:09;;;;;;;11.18;2.30;;;23.20;27.90;;;;;;4951578;28;20091;-65
2021/10/23 05:43:35;;;;;;;7.88;2.15;;;23.20;28.20;;;;;;4954185;28;20086;-66
2021/10/23 05:46:01;;;;;;;7.80;1.83;;;23.20;28.50;;;;;;4952459;28;20441;-67
2021/10/23 05:48:28;;;;;;;10.82;1.98;;;23.10;28.70;;;;;;4958038;28;20099;-66
2021/10/23 05:50:55;;;;;;;7.88;1.88;;;23.10;28.40;;;;;;4952419;28;20505;-66
2021/10/23 05:53:21;;;;;;;9.95;1.70;;;23.00;28.40;;;;;;4951440;28;20096;-66
2021/10/23 05:55:47;;;;;;;6.22;1.95;;;23.00;28.50;;;;;;4949855;28;20092;-63
2021/10/23 05:58:14;;;;;;;12.07;1.95;;;23.00;28.50;;;;;;4966681;28;20170;-64
2021/10/23 06:00:49;;;;;;;7.03;2.15;;;22.90;28.50;;;;;;4966687;28;20095;-65
2021/10/23 06:03:19;;;;;;;5.45;1.73;;;23.00;27.70;;;;;;4951886;28;20078;-64
2021/10/23 06:05:46;;;;;;;5.80;1.67;;;23.00;27.50;;;;;;4950745;28;20162;-64
2021/10/23 06:08:13;;;;;;;8.93;1.90;;;22.90;27.60;;;;;;4950436;28;20203;-63
2021/10/23 06:10:39;;;;;;;7.20;1.67;;;22.90;26.80;;;;;;4952324;28;20102;-66
2021/10/23 06:13:06;;;;;;;15.02;2.20;;;22.90;27.10;;;;;;4951251;28;20115;-65
2021/10/23 06:15:32;;;;;;;6.75;1.77;;;22.90;26.90;;;;;;4967271;28;20072;-66
2021/10/23 06:18:02;;;;;;;28.65;2.78;;;22.80;26.80;;;;;;4950922;28;20104;-65
2021/10/23 06:20:29;;;;;;;16.85;2.58;;;22.80;26.70;;;;;;4951349;28;20139;-66
2021/10/23 06:22:55;;;;;;;26.85;3.45;;;22.80;27.10;;;;;;4966434;28;20076;-64
2021/10/23 06:25:22;;;;;;;14.95;2.50;;;22.70;27.70;;;;;;4949210;28;20093;-66
2021/10/23 06:27:49;;;;;;;11.65;3.28;;;22.70;27.60;;;;;;4966908;28;20113;-67
2021/10/23 06:30:16;;;;;;;10.30;2.15;;;22.60;27.70;;;;;;4951147;28;20201;-64
2021/10/23 06:32:51;;;;;;;10.90;2.72;;;22.60;27.70;;;;;;4950179;28;20477;-68
2021/10/23 06:35:18;;;;;;;21.08;3.30;;;22.60;27.80;;;;;;4960612;28;20134;-61
2021/10/23 06:37:45;;;;;;;10.25;3.03;;;22.60;28.20;;;;;;4952822;28;20080;-63
2021/10/23 06:40:12;;;;;;;12.65;2.60;;;22.60;28.40;;;;;;4971264;28;20091;-63
2021/10/23 06:42:40;;;;;;;15.50;3.00;;;22.50;28.40;;;;;;4954374;28;20096;-64
2021/10/23 06:45:12;;;;;;;9.07;2.10;;;22.40;28.90;;;;;;4952635;28;20609;-65
2021/10/23 06:47:39;;;;;;;7.43;2.63;;;22.40;29.10;;;;;;4967816;28;20143;-62
2021/10/23 06:50:08;;;;;;;8.85;2.22;;;22.40;29.10;;;;;;4951426;28;20086;-63
2021/10/23 06:52:35;;;;;;;14.57;2.10;;;22.30;29.10;;;;;;4967126;28;20649;-63
2021/10/23 06:55:02;;;;;;;4.65;1.80;;;22.20;29.10;;;;;;4955294;28;20186;-65
2021/10/23 06:57:28;;;;;;;8.02;1.95;;;22.20;29.30;;;;;;4952519;28;20166;-65
2021/10/23 06:59:54;;;;;;;7.68;2.13;;;22.10;29.30;;;;;;4969052;28;20083;-63
2021/10/23 07:02:21;;;;;;;10.23;2.67;;;22.20;29.70;;;;;;4936628;28;21547;-64
2021/10/23 07:04:48;;;;;;;14.50;2.40;;;22.10;30.10;;;;;;4954214;28;20079;-63
2021/10/23 07:07:14;;;;;;;10.65;3.08;;;22.10;30.60;;;;;;4953104;28;20114;-64
2021/10/23 07:09:40;;;;;;;15.43;2.70;;;22.10;31.10;;;;;;4968992;28;20072;-66
2021/10/23 07:12:07;;;;;;;13.00;2.47;;;22.00;31.20;;;;;;4952693;28;20099;-64
2021/10/23 07:14:33;;;;;;;11.77;2.55;;;22.00;31.70;;;;;;4953076;28;20159;-64
2021/10/23 07:16:59;;;;;;;8.52;2.28;;;21.90;31.90;;;;;;4935743;28;20084;-63
2021/10/23 07:19:26;;;;;;;9.32;2.08;;;21.80;31.80;;;;;;4967330;28;20071;-63
2021/10/23 07:21:52;;;;;;;;;;;21.80;32.00;;;;;;4951741;28;20075;-65
2021/10/23 07:24:19;;;;;;;7.20;2.30;;;21.70;31.90;;;;;;4952283;28;20046;-64
2021/10/23 07:26:47;;;;;;;6.57;2.13;;;21.70;32.00;;;;;;4952777;28;20092;-63
2021/10/23 07:29:14;;;;;;;13.05;2.00;;;21.60;32.00;;;;;;4966799;28;20097;-66
2021/10/23 07:31:41;;;;;;;14.35;2.47;;;21.60;32.20;;;;;;4965527;28;20120;-64
2021/10/23 07:34:08;;;;;;;13.35;2.17;;;21.70;32.20;;;;;;4951614;28;20064;-64
2021/10/23 07:36:34;;;;;;;7.45;2.20;;;21.60;32.10;;;;;;4951733;28;20531;-62
2021/10/23 07:39:01;;;;;;;16.92;3.42;;;21.50;31.80;;;;;;4951549;28;20080;-67
2021/10/23 07:41:27;;;;;;;13.57;2.90;;;21.40;31.70;;;;;;4952676;28;20076;-64
2021/10/23 07:43:54;;;;;;;19.52;3.72;;;21.30;32.00;;;;;;4951355;28;20083;-65
2021/10/23 07:46:20;;;;;;;;;;;21.20;32.50;;;;;;4935819;28;20135;-65
2021/10/23 07:48:46;;;;;;;14.63;3.33;;;21.20;32.90;;;;;;4951367;28;19959;-67
2021/10/23 07:51:12;;;;;;;;;;;21.20;33.00;;;;;;4936005;28;20088;-68
2021/10/23 07:53:38;;;;;;;12.05;3.20;;;21.10;33.20;;;;;;4967872;28;19979;-66
2021/10/23 07:56:04;;;;;;;;;;;21.20;33.10;;;;;;4952477;28;20103;-64
2021/10/23 07:58:31;;;;;;;18.85;3.80;;;21.10;33.40;;;;;;4968110;28;20013;-65
2021/10/23 08:00:58;;;;;;;14.35;4.15;;;21.10;33.80;;;;;;4951308;28;20078;-65
2021/10/23 08:03:25;;;;;;;18.40;4.75;;;21.00;34.10;;;;;;4951049;28;20507;-65
2021/10/23 08:05:51;;;;;;;19.88;5.93;;;20.90;34.10;;;;;;4949923;28;20111;-64
2021/10/23 08:08:17;;;;;;;25.10;6.35;;;20.70;34.00;;;;;;4952722;28;20081;-66
2021/10/23 08:10:43;;;;;;;;;;;20.60;34.30;;;;;;4968071;28;20142;-64
2021/10/23 08:13:10;;;;;;;24.73;8.60;;;20.60;34.80;;;;;;4967619;28;19958;-65
2021/10/23 08:15:37;;;;;;;26.70;8.07;;;20.60;34.60;;;;;;4951323;28;20079;-63
2021/10/23 08:18:03;;;;;;;22.77;7.55;;;20.60;34.80;;;;;;4951613;28;20462;-64
2021/10/23 08:20:34;;;;;;;24.45;7.85;;;20.60;34.80;;;;;;4953218;28;20110;-63
2021/10/23 08:23:04;;;;;;;25.95;7.07;;;20.60;34.10;;;;;;4966072;28;20454;-64
2021/10/23 08:25:30;;;;;;;14.77;5.60;;;20.60;34.40;;;;;;4951525;28;20078;-64
2021/10/23 08:27:57;;;;;;;14.68;4.70;;;20.60;33.70;;;;;;4949621;28;20158;-65
2021/10/23 08:30:23;;;;;;;;;;;20.50;32.80;;;;;;4935593;28;20121;-66
2021/10/23 08:32:49;;;;;;;8.95;3.30;;;20.60;31.20;;;;;;4948683;28;20456;-65
2021/10/23 08:35:17;;;;;;;23.40;3.33;;;20.60;30.40;;;;;;4948155;28;20502;-64
2021/10/23 08:37:44;;;;;;;17.65;3.55;;;20.90;47.70;;;;;;4949943;28;20082;-63
2021/10/23 08:40:12;;;;;;;9.75;3.17;;;20.50;30.50;;;;;;4950733;28;20080;-64
2021/10/23 08:42:40;;;;;;;20.80;3.47;;;20.50;30.20;;;;;;4966154;28;20650;-67
2021/10/23 08:45:08;;;;;;;14.70;3.33;;;20.40;30.90;;;;;;4951400;28;20082;-65
2021/10/23 08:47:39;;;;;;;16.20;3.00;;;20.40;31.20;;;;;;4935394;28;20099;-66
2021/10/23 08:50:07;;;;;;;14.05;3.13;;;20.20;31.30;;;;;;4950825;28;20083;-66
2021/10/23 08:52:34;;;;;;;16.45;3.80;;;20.20;31.60;;;;;;4966102;28;20137;-64
2021/10/23 08:55:01;;;;;;;14.23;3.78;;;20.10;31.60;;;;;;4965942;28;20091;-67
2021/10/23 08:57:28;;;;;;;12.73;3.63;;;20.00;31.60;;;;;;4964563;28;20071;-63
2021/10/23 09:00:03;;;;;;;12.43;3.30;;;20.00;32.30;;;;;;4948238;28;20075;-66
2021/10/23 09:02:30;;;;;;;12.18;3.47;;;20.00;32.20;;;;;;4963923;28;20146;-68
2021/10/23 09:04:57;;;;;;;13.55;3.20;;;20.00;32.30;;;;;;4950027;28;20678;-66
2021/10/23 09:07:25;;;;;;;11.75;3.10;;;20.00;32.40;;;;;;4951349;28;20081;-63
2021/10/23 09:10:01;;;;;;;14.40;2.97;;;19.90;32.10;;;;;;4966107;28;20080;-66
2021/10/23 09:12:33;;;;;;;11.40;3.22;;;19.80;33.10;;;;;;4965826;28;20095;-64
2021/10/23 09:15:03;;;;;;;17.50;3.20;;;19.80;33.10;;;;;;4966900;28;20194;-65
2021/10/23 09:17:31;;;;;;;13.25;4.25;;;19.80;33.00;;;;;;4966558;28;20099;-66
2021/10/23 09:20:03;;;;;;;20.83;4.07;;;19.60;33.50;;;;;;4966234;28;20127;-65
2021/10/23 09:22:38;;;;;;;25.02;3.92;;;19.50;33.10;;;;;;4950777;28;20550;-66
2021/10/23 09:25:24;;;;;;;14.63;3.70;;;19.40;33.40;;;;;;4964094;28;20135;-66
2021/10/23 09:28:00;;;;;;;12.55;3.25;;;19.50;32.70;;;;;;4963777;28;20107;-64
2021/10/23 09:30:34;;;;;;;17.80;3.47;;;19.40;33.40;;;;;;4963449;28;20946;-68
2021/10/23 09:33:09;;;;;;;21.05;4.40;;;19.50;33.30;;;;;;4964515;28;20171;-65
2021/10/23 09:35:39;;;;;;;24.98;5.13;;;19.40;33.40;;;;;;4964677;28;20098;-65
2021/10/23 09:38:10;;;;;;;23.65;5.55;;;19.30;33.70;;;;;;4948543;28;20127;-65
2021/10/23 09:40:40;;;;;;;19.58;4.40;;;19.30;33.70;;;;;;4965763;28;20597;-64
2021/10/23 09:43:18;;;;;;;25.98;4.65;;;19.10;33.70;;;;;;4950239;28;20068;-65
2021/10/23 09:45:59;;;;;;;17.67;4.18;;;19.20;34.00;;;;;;4952054;28;20079;-64
2021/10/23 09:48:51;;;;;;;25.27;4.07;;;19.10;34.30;;;;;;4950553;28;20079;-68
2021/10/23 09:51:26;;;;;;;21.10;5.20;;;19.00;33.10;;;;;;4948748;28;20509;-66
2021/10/23 09:53:55;;;;;;;26.38;5.22;;;19.00;33.80;;;;;;4949920;28;20071;-64
2021/10/23 09:56:25;;;;;;;24.75;5.50;;;19.00;34.10;;;;;;4962889;28;20139;-67
2021/10/23 09:59:11;;;;;;;36.88;5.55;;;19.00;34.00;;;;;;4965552;28;20171;-65
2021/10/23 10:01:43;;;;;;;23.85;5.35;;;19.00;34.30;;;;;;4949210;28;20577;-65
2021/10/23 10:04:14;;;;;;;21.65;5.45;;;19.00;33.70;;;;;;4948713;28;20080;-66
2021/10/23 10:06:45;;;;;;;25.60;5.70;;;19.00;33.90;;;;;;4964836;28;20104;-66
2021/10/23 10:09:13;;;;;;;37.03;7.43;;;19.10;34.60;;;;;;4950195;28;20075;-67
2021/10/23 10:11:40;;;;;;;37.47;8.13;;;19.00;34.60;;;;;;4966156;28;20469;-66
2021/10/23 10:14:08;;;;;;;51.47;11.15;;;18.90;34.50;;;;;;4954107;28;20087;-65
2021/10/23 10:16:35;;;;;;;50.00;11.40;;;18.90;34.70;;;;;;4952514;28;20166;-64
2021/10/23 10:19:01;;;;;;;98.38;17.27;;;18.90;35.20;;;;;;4963095;28;20078;-65
2021/10/23 10:21:33;;;;;;;;;;;18.90;35.80;;;;;;4953444;28;20434;-63
2021/10/23 10:24:00;;;;;;;91.68;20.30;;;19.00;35.70;;;;;;4954305;28;19990;-65
2021/10/23 10:26:31;;;;;;;98.18;19.67;;;19.00;36.10;;;;;;4950924;28;20075;-65
2021/10/23 10:29:33;;;;;;;103.50;20.65;;;18.80;36.40;;;;;;4953753;28;20094;-67
2021/10/23 10:32:23;;;;;;;90.07;20.55;;;18.70;37.10;;;;;;4953190;28;20165;-66
2021/10/23 10:35:15;;;;;;;90.57;20.50;;;18.50;37.70;;;;;;4953852;28;20083;-65
2021/10/23 10:38:03;;;;;;;87.53;20.48;;;18.40;38.90;;;;;;4954647;28;20179;-63
2021/10/23 10:43:09;;;;;;;71.78;19.98;;;18.30;40.20;;;;;;4954539;28;20080;-68
2021/10/23 10:45:50;;;;;;;98.28;22.50;;;18.40;40.50;;;;;;4953803;28;20445;-63
2021/10/23 10:48:27;;;;;;;75.88;23.88;;;18.40;40.60;;;;;;4954398;28;20072;-65
2021/10/23 10:51:14;;;;;;;85.28;23.25;;;18.60;40.40;;;;;;4953574;28;20087;-65
2021/10/23 10:53:43;;;;;;;83.10;25.17;;;18.40;40.60;;;;;;4969391;28;20087;-64
2021/10/23 10:56:11;;;;;;;78.53;24.15;;;18.30;41.20;;;;;;4953422;28;20080;-67
2021/10/23 10:58:43;;;;;;;80.40;23.73;;;18.30;41.60;;;;;;4965961;28;20179;-63
2021/10/23 11:01:29;;;;;;;88.00;26.50;;;18.20;41.40;;;;;;4951594;28;20083;-65
2021/10/23 11:04:12;;;;;;;84.28;26.27;;;18.20;41.80;;;;;;4967061;28;20115;-63
2021/10/23 11:06:45;;;;;;;97.70;27.52;;;18.30;42.10;;;;;;4966879;28;20084;-68
2021/10/23 11:09:12;;;;;;;85.60;28.80;;;18.30;41.90;;;;;;4953265;28;20214;-68
2021/10/23 11:11:48;;;;;;;82.97;30.55;;;18.20;42.20;;;;;;4952121;28;20375;-65
2021/10/23 11:16:54;;;;;;;78.75;28.52;;;18.20;42.70;;;;;;4953901;28;20072;-65
2021/10/23 11:19:27;;;;;;;82.00;29.15;;;18.10;42.80;;;;;;4951984;28;20091;-68
2021/10/23 11:21:58;;;;;;;81.60;28.05;;;17.90;43.10;;;;;;4953315;28;20068;-65
2021/10/23 11:24:29;;;;;;;90.05;28.65;;;17.70;43.60;;;;;;4966145;28;20082;-66
2021/10/23 11:26:56;;;;;;;81.10;27.20;;;17.60;43.70;;;;;;4950733;28;20091;-65
2021/10/23 11:29:25;;;;;;;89.60;27.80;;;17.70;43.80;;;;;;4952175;28;20087;-65
2021/10/23 11:31:52;;;;;;;82.70;27.98;;;17.60;43.60;;;;;;4951358;28;20112;-65
2021/10/23 11:34:27;;;;;;;78.72;27.92;;;17.50;44.10;;;;;;4952306;28;20087;-65
2021/10/23 11:37:11;;;;;;;90.15;28.55;;;17.50;44.00;;;;;;4954490;28;20071;-67
2021/10/23 11:39:57;;;;;;;83.53;28.95;;;17.60;43.80;;;;;;4953256;28;20134;-64
2021/10/23 11:42:51;;;;;;;68.40;29.65;;;17.60;43.90;;;;;;4934545;28;20136;-65
2021/10/23 11:45:28;;;;;;;84.47;28.75;;;17.60;44.00;;;;;;4950698;28;20576;-64
2021/10/23 11:47:58;;;;;;;;;;;17.60;44.20;;;;;;4951831;28;20082;-67
2021/10/23 11:50:29;;;;;;;83.13;32.03;;;17.50;44.40;;;;;;4951787;28;19975;-67
2021/10/23 11:52:58;;;;;;;84.65;29.55;;;17.50;44.70;;;;;;4954811;28;20174;-67
2021/10/23 11:55:49;;;;;;;85.47;29.67;;;17.40;44.70;;;;;;4966896;28;20072;-65
2021/10/23 11:58:42;;;;;;;67.97;26.27;;;17.20;45.20;;;;;;4951629;28;20159;-66
2021/10/23 12:01:12;;;;;;;78.55;26.27;;;17.20;45.70;;;;;;4949509;28;20609;-67
2021/10/23 12:03:43;;;;;;;72.55;27.08;;;17.30;45.70;;;;;;4953443;28;20547;-67
2021/10/23 12:06:28;;;;;;;86.93;27.80;;;17.40;45.40;;;;;;4952433;28;20072;-65
2021/10/23 12:08:57;;;;;;;85.57;28.15;;;17.50;45.40;;;;;;4966587;28;20506;-64
2021/10/23 12:11:29;;;;;;;85.50;27.98;;;17.50;44.90;;;;;;4950962;28;20107;-65
2021/10/23 12:14:11;;;;;;;77.30;26.88;;;17.30;45.40;;;;;;4952046;28;20074;-67
2021/10/23 12:16:43;;;;;;;81.22;27.67;;;17.30;46.10;;;;;;4967207;28;20167;-64
2021/10/23 12:19:16;;;;;;;88.40;26.70;;;17.10;45.70;;;;;;4950902;28;20083;-65
2021/10/23 12:22:04;;;;;;;76.28;27.30;;;17.10;46.40;;;;;;4965886;28;20099;-65
2021/10/23 12:24:37;;;;;;;94.00;28.42;;;17.20;46.90;;;;;;4950567;28;20499;-67
2021/10/23 12:27:27;;;;;;;70.63;27.30;;;17.00;46.50;;;;;;4951624;28;20628;-68
2021/10/23 12:29:59;;;;;;;78.90;26.67;;;16.90;46.80;;;;;;4950542;28;20110;-65
2021/10/23 12:32:34;;;;;;;74.60;25.05;;;17.10;46.50;;;;;;4949573;28;20126;-65
2021/10/23 12:35:03;;;;;;;66.63;24.27;;;17.10;46.10;;;;;;4950785;28;20146;-64
2021/10/23 12:37:36;;;;;;;69.38;24.40;;;17.10;46.60;;;;;;4951221;28;20078;-63
2021/10/23 12:40:14;;;;;;;78.90;23.77;;;17.00;47.10;;;;;;4950536;28;20236;-67
2021/10/23 12:42:47;;;;;;;57.67;22.48;;;16.70;47.60;;;;;;4952359;28;20092;-65
2021/10/23 12:45:21;;;;;;;79.93;23.02;;;16.80;47.80;;;;;;4966909;28;20127;-66
2021/10/23 12:47:48;;;;;;;61.85;23.05;;;16.80;47.70;;;;;;4967063;28;20082;-68
2021/10/23 12:50:19;;;;;;;72.53;24.77;;;16.90;47.40;;;;;;4965529;28;20095;-67
2021/10/23 12:52:46;;;;;;;82.93;24.25;;;16.90;47.30;;;;;;4948552;28;20174;-65
2021/10/23 12:55:12;;;;;;;81.72;25.23;;;16.90;47.20;;;;;;4949147;28;20100;-65
2021/10/23 12:57:39;;;;;;;77.78;24.55;;;17.10;47.00;;;;;;4950861;28;20080;-64
2021/10/23 13:00:05;;;;;;;;;;;17.10;46.70;;;;;;4949903;28;20075;-65
2021/10/23 13:02:32;;;;;;;77.10;24.63;;;16.90;47.00;;;;;;4950479;28;19981;-67